Exeter, NE (68351)

3:26 PM CDT on July 06, 2015 (GMT -0500)
Geneva | | Change Station
CLOSE
Current Station
Personal Weather Station
Location: Geneva, NE
Elevation: 1640 ft
Nearby Weather Stations

Elev 1640 ft 40.53 °N, 97.61 °W | Updated 15 seconds ago

Overcast
Overcast
72.0 °F
Feels Like 72 °F
N
12.8
Wind Variable Wind from NNE
Gusts 19.2 mph

Today
High -- | Low -- °F
--% Chance of Precip.
Yesterday
High -- | Low -- °F
Precip. -- in
6:05 AM 9:03 PM
Waning Gibbous, 72% visible
Pressure 29.99 in
Visibility 10.0 miles
Clouds Overcast 2600 ft
Heat Index 72 °F
Dew Point 66 °F
Humidity 81%
Rainfall -9999.00 in
Snow Depth Not available.
UV 3 out of 12
Pollen 1.90 out of 12
Air Quality Not available.
Flu Activity Not available.
METAR KJYR 062015Z AUTO 01017G25KT 10SM OVC026 22/19 A2999 RMK AO2

More Conditions Fewer Conditions

Pressure 29.99 in
Visibility 10.0 miles
Clouds Overcast 2600 ft
Heat Index 72 °F
Dew Point 66 °F
Humidity 81%
Rainfall -9999.00 in
Snow Depth Not available.
UV 3 out of 12
Pollen 1.90 out of 12
Air Quality Not available.
Flu Activity Not available.
METAR KJYR 062015Z AUTO 01017G25KT 10SM OVC026 22/19 A2999 RMK AO2

More Conditions Fewer Conditions

10-Day Weather Forecast

×

Almanac

Astronomy

Jul. 06, 2015 Rise Set
Actual Time
Civil Twilight
Nautical Twilight
Astronomical Twilight
Moon
Length of Visible Light
Length of Day
Tomorrow will be .
, % of the Moon is Illuminated

Today's Extremes

State Highs State Lows

Community

WunderPhotos

Upload Photos

1,835,636 photos uploaded!

WunderBlogs® & News

Nearby

Air Quality

  Air Quality AQ Index Pollutant
Not available.

Snow Depth

Station Depth Elevation

Earthquake Activity

City Distance Mag. Time & Date
Minimum magnitude displayed is 2.5.

Coastal Water Temperatures

Place Temperature

Stations

Nearby Weather Stations

Station Location Temp. Windchill Dew Point Humidity Wind Precip. Elev Updated Type